createdAt,value
2023-05-05T00:00:32.823Z,100.00
2023-05-05T00:05:35.511Z,100.00
2023-05-05T00:10:39.582Z,100.00
2023-05-05T00:15:42.987Z,100.00
2023-05-05T00:20:47.044Z,100.00
2023-05-05T00:25:51.086Z,100.00
2023-05-05T00:30:53.786Z,100.00
2023-05-05T00:35:56.522Z,100.00
2023-05-05T00:41:00.573Z,100.00
2023-05-05T00:46:10.605Z,100.00
2023-05-05T00:51:14.748Z,100.00
2023-05-05T00:56:20.887Z,100.00
2023-05-05T01:01:24.063Z,100.00
2023-05-05T01:06:42.413Z,100.00
2023-05-05T01:11:52.688Z,100.00
2023-05-05T01:17:00.036Z,100.00
2023-05-05T01:22:08.210Z,100.00
2023-05-05T01:27:45.941Z,100.00
2023-05-05T01:32:55.153Z,100.00
2023-05-05T01:38:04.652Z,100.00
2023-05-05T01:43:09.912Z,100.00
2023-05-05T01:48:17.926Z,100.00
2023-05-05T01:53:22.209Z,100.00
2023-05-05T01:58:27.887Z,100.00
2023-05-05T02:03:34.349Z,100.00
2023-05-05T02:08:38.942Z,100.00
2023-05-05T02:13:44.020Z,100.00
2023-05-05T02:18:49.429Z,100.00
2023-05-05T02:23:52.193Z,100.00
2023-05-05T02:29:03.342Z,100.00
2023-05-05T02:34:09.036Z,100.00
2023-05-05T02:39:16.327Z,100.00
2023-05-05T02:44:20.881Z,100.00
2023-05-05T02:49:25.340Z,100.00
2023-05-05T02:54:28.793Z,100.00
2023-05-05T02:59:39.249Z,100.00
2023-05-05T03:04:46.814Z,100.00
2023-05-05T03:09:56.765Z,100.00
2023-05-05T03:15:01.763Z,100.00
2023-05-05T03:20:06.943Z,100.00
2023-05-05T03:25:10.288Z,100.00
2023-05-05T03:30:13.988Z,100.00
2023-05-05T03:35:18.011Z,100.00
2023-05-05T03:40:23.490Z,100.00
2023-05-05T03:45:29.924Z,100.00
2023-05-05T03:50:33.987Z,100.00
2023-05-05T03:55:36.956Z,100.00
2023-05-05T04:00:39.583Z,100.00
2023-05-05T04:05:43.521Z,100.00
2023-05-05T04:10:46.618Z,100.00
2023-05-05T04:15:49.297Z,100.00
2023-05-05T04:20:53.348Z,100.00
2023-05-05T04:25:56.020Z,100.00
2023-05-05T04:30:59.387Z,100.00
2023-05-05T04:36:03.260Z,100.00
2023-05-05T04:41:07.218Z,100.00
2023-05-05T04:46:09.975Z,100.00
2023-05-05T04:51:14.062Z,100.00
2023-05-05T04:56:16.894Z,100.00
2023-05-05T05:01:19.560Z,100.00
2023-05-05T05:06:23.768Z,100.00
2023-05-05T05:11:26.477Z,100.00
2023-05-05T05:16:29.213Z,100.00
2023-05-05T05:21:33.202Z,100.00
2023-05-05T05:26:35.867Z,100.00
2023-05-05T05:31:39.770Z,100.00
2023-05-05T05:36:43.758Z,100.00
2023-05-05T05:41:46.452Z,100.00
2023-05-05T05:46:49.195Z,100.00
2023-05-05T05:51:53.204Z,100.00
2023-05-05T05:56:55.892Z,100.00
2023-05-05T06:01:58.570Z,100.00
2023-05-05T06:07:02.506Z,100.00
2023-05-05T06:12:05.270Z,100.00
2023-05-05T06:17:07.895Z,100.00
2023-05-05T06:22:11.854Z,100.00
2023-05-05T06:27:14.569Z,100.00
2023-05-05T06:32:17.294Z,100.00
2023-05-05T06:37:21.331Z,95.19
2023-05-05T06:42:24.097Z,84.56
2023-05-05T06:47:26.974Z,84.18
2023-05-05T06:52:30.996Z,80.29
2023-05-05T06:57:33.693Z,75.30
2023-05-05T07:02:36.385Z,74.30
2023-05-05T07:07:42.282Z,74.68
2023-05-05T07:12:45.027Z,70.32
2023-05-05T07:17:47.894Z,71.92
2023-05-05T07:22:52.050Z,68.20
2023-05-05T07:27:54.837Z,67.42
2023-05-05T07:32:57.779Z,60.23
2023-05-05T07:38:02.216Z,60.71
2023-05-05T07:43:04.914Z,58.20
2023-05-05T07:48:07.503Z,57.03
2023-05-05T07:53:14.811Z,55.20
2023-05-05T07:58:18.201Z,53.09
2023-05-05T08:03:24.287Z,51.70
2023-05-05T08:08:28.674Z,53.78
2023-05-05T08:13:31.362Z,52.91
2023-05-05T08:18:37.426Z,47.51
2023-05-05T08:23:42.444Z,48.37
2023-05-05T08:28:45.117Z,46.58
2023-05-05T08:33:47.732Z,48.66
2023-05-05T08:38:52.172Z,44.84
2023-05-05T08:43:54.870Z,44.08
2023-05-05T08:48:58.740Z,44.84
2023-05-05T08:54:05.259Z,44.28
2023-05-05T08:59:09.381Z,41.99
2023-05-05T09:04:12.035Z,42.43
2023-05-05T09:09:16.273Z,42.44
2023-05-05T09:14:18.927Z,40.57
2023-05-05T09:19:21.563Z,39.58
2023-05-05T09:24:25.521Z,40.16
2023-05-05T09:29:28.275Z,40.49
2023-05-05T09:34:33.527Z,46.48
2023-05-05T09:39:37.492Z,50.53
2023-05-05T09:44:41.096Z,54.13
2023-05-05T09:49:43.815Z,53.22
2023-05-05T09:54:55.058Z,41.90
2023-05-05T09:59:58.746Z,39.83
2023-05-05T10:05:10.835Z,36.98
2023-05-05T10:10:16.690Z,43.59
2023-05-05T10:15:19.870Z,44.67
2023-05-05T10:20:23.996Z,47.10
2023-05-05T10:25:31.493Z,52.56
2023-05-05T10:30:41.913Z,68.03
2023-05-05T10:35:47.290Z,84.29
2023-05-05T10:40:51.519Z,100.00
2023-05-05T10:45:55.255Z,100.00
2023-05-05T10:51:07.156Z,100.00
2023-05-05T10:56:16.407Z,100.00
2023-05-05T11:01:33.814Z,100.00
2023-05-05T11:06:36.661Z,100.00
2023-05-05T11:12:06.800Z,100.00
2023-05-05T11:17:46.600Z,100.00
2023-05-05T11:23:23.706Z,100.00
2023-05-05T11:28:30.964Z,100.00
2023-05-05T11:33:36.023Z,100.00
2023-05-05T11:39:05.350Z,100.00
2023-05-05T11:44:13.582Z,100.00
2023-05-05T11:49:27.440Z,100.00
2023-05-05T11:54:31.059Z,100.00
2023-05-05T11:59:37.226Z,100.00
2023-05-05T12:04:40.960Z,100.00
2023-05-05T12:14:51.812Z,80.39
2023-05-05T12:19:55.664Z,91.21
2023-05-05T12:25:01.016Z,93.36
2023-05-05T12:30:16.993Z,100.00
2023-05-05T12:35:19.843Z,100.00
2023-05-05T12:40:40.952Z,100.00
2023-05-05T12:45:44.991Z,100.00
2023-05-05T12:50:47.709Z,100.00
2023-05-05T12:55:51.268Z,100.00
2023-05-05T13:01:10.458Z,100.00
2023-05-05T13:06:24.563Z,100.00
2023-05-05T13:11:27.324Z,100.00
2023-05-05T13:16:31.499Z,100.00
2023-05-05T13:21:34.183Z,100.00
2023-05-05T13:26:36.887Z,100.00
2023-05-05T13:31:41.633Z,100.00
2023-05-05T13:36:44.492Z,100.00
2023-05-05T13:41:47.203Z,100.00
2023-05-05T13:46:51.819Z,100.00
2023-05-05T13:51:55.170Z,100.00
2023-05-05T13:56:58.108Z,100.00
2023-05-05T14:02:02.030Z,100.00
2023-05-05T14:07:04.830Z,100.00
2023-05-05T14:12:07.599Z,100.00
2023-05-05T14:17:12.778Z,100.00
2023-05-05T14:22:15.411Z,100.00
2023-05-05T14:27:18.002Z,100.00
2023-05-05T14:32:23.045Z,100.00
2023-05-05T14:37:25.781Z,100.00
2023-05-05T14:42:28.377Z,100.00
2023-05-05T14:47:32.401Z,100.00
2023-05-05T14:52:36.529Z,100.00
2023-05-05T14:57:39.252Z,100.00
2023-05-05T15:02:43.428Z,100.00
2023-05-05T15:07:46.160Z,100.00
2023-05-05T15:12:49.465Z,100.00
2023-05-05T15:17:53.585Z,100.00
2023-05-05T15:22:56.406Z,100.00
2023-05-05T15:28:00.944Z,100.00
2023-05-05T15:33:05.008Z,100.00
2023-05-05T15:38:07.792Z,100.00
2023-05-05T15:43:10.660Z,100.00
2023-05-05T15:48:14.696Z,100.00
2023-05-05T15:53:17.509Z,100.00
2023-05-05T15:58:20.443Z,100.00
2023-05-05T16:03:24.390Z,100.00
2023-05-05T16:08:27.054Z,100.00
2023-05-05T16:13:29.832Z,100.00
2023-05-05T16:18:33.846Z,100.00
2023-05-05T16:23:36.559Z,100.00
2023-05-05T16:28:39.303Z,100.00
2023-05-05T16:33:43.766Z,100.00
2023-05-05T16:38:46.475Z,100.00
2023-05-05T16:43:48.962Z,100.00
2023-05-05T16:48:54.058Z,100.00
2023-05-05T16:53:57.103Z,100.00
2023-05-05T16:58:59.776Z,100.00
2023-05-05T17:04:03.759Z,100.00
2023-05-05T17:09:06.727Z,100.00
2023-05-05T17:14:09.358Z,100.00
2023-05-05T17:19:13.344Z,100.00
2023-05-05T17:24:16.003Z,100.00
2023-05-05T17:29:19.861Z,100.00
2023-05-05T17:34:23.677Z,100.00
2023-05-05T17:39:26.313Z,100.00
2023-05-05T17:44:28.930Z,100.00
2023-05-05T17:49:32.825Z,100.00
2023-05-05T17:54:35.485Z,100.00
2023-05-05T17:59:38.174Z,100.00
2023-05-05T18:04:42.556Z,100.00
2023-05-05T18:09:45.264Z,100.00
2023-05-05T18:14:47.886Z,100.00
2023-05-05T18:19:51.860Z,100.00
2023-05-05T18:24:58.907Z,100.00
2023-05-05T18:30:01.743Z,100.00
2023-05-05T18:35:06.514Z,100.00
2023-05-05T18:40:10.955Z,100.00
2023-05-05T18:45:13.952Z,100.00
2023-05-05T18:50:18.981Z,100.00
2023-05-05T18:55:22.107Z,100.00
2023-05-05T19:00:25.098Z,100.00
2023-05-05T19:05:29.233Z,100.00
2023-05-05T19:10:31.830Z,100.00
2023-05-05T19:15:34.497Z,100.00
2023-05-05T19:20:42.780Z,100.00
2023-05-05T19:25:45.507Z,100.00
2023-05-05T19:30:48.713Z,100.00
2023-05-05T19:35:52.717Z,100.00
2023-05-05T19:40:55.328Z,100.00
2023-05-05T19:45:57.893Z,100.00
2023-05-05T19:51:01.982Z,100.00
2023-05-05T19:56:05.758Z,100.00
2023-05-05T20:01:08.435Z,100.00
2023-05-05T20:06:12.448Z,100.00
2023-05-05T20:11:15.396Z,100.00
2023-05-05T20:16:18.411Z,100.00
2023-05-05T20:21:23.508Z,100.00
2023-05-05T20:26:26.510Z,100.00
2023-05-05T20:31:29.290Z,100.00
2023-05-05T20:36:33.392Z,100.00
2023-05-05T20:41:37.957Z,100.00
2023-05-05T20:46:40.703Z,100.00
2023-05-05T20:51:44.653Z,100.00
2023-05-05T20:56:47.300Z,100.00
2023-05-05T21:01:49.954Z,100.00
2023-05-05T21:06:53.925Z,100.00
2023-05-05T21:11:56.589Z,100.00
2023-05-05T21:16:59.254Z,100.00
2023-05-05T21:22:03.208Z,100.00
2023-05-05T21:27:05.891Z,100.00
2023-05-05T21:32:09.731Z,100.00
2023-05-05T21:37:13.686Z,100.00
2023-05-05T21:42:16.406Z,100.00
2023-05-05T21:47:19.005Z,100.00
2023-05-05T21:52:24.001Z,100.00
2023-05-05T21:57:26.608Z,100.00
2023-05-05T22:02:29.275Z,100.00
2023-05-05T22:07:33.348Z,100.00
2023-05-05T22:12:36.010Z,100.00
2023-05-05T22:17:38.627Z,100.00
2023-05-05T22:22:42.662Z,100.00
2023-05-05T22:27:45.433Z,100.00
2023-05-05T22:32:48.167Z,100.00
2023-05-05T22:37:52.169Z,100.00
2023-05-05T22:42:54.777Z,100.00
2023-05-05T22:47:57.546Z,100.00
2023-05-05T22:53:01.597Z,100.00
2023-05-05T22:58:04.220Z,100.00
2023-05-05T23:03:06.993Z,100.00
2023-05-05T23:08:11.117Z,100.00
2023-05-05T23:13:13.873Z,100.00
2023-05-05T23:18:16.523Z,100.00
2023-05-05T23:23:20.597Z,100.00
2023-05-05T23:28:23.284Z,100.00
2023-05-05T23:33:25.943Z,100.00
2023-05-05T23:38:29.913Z,100.00
2023-05-05T23:43:32.519Z,100.00
2023-05-05T23:48:35.115Z,100.00
2023-05-05T23:53:39.042Z,100.00
2023-05-05T23:58:41.628Z,100.00
